createdAt,value
2022-09-22T00:01:11.708Z,6.50
2022-09-22T00:03:41.004Z,6.40
2022-09-22T00:06:14.265Z,6.40
2022-09-22T00:08:46.298Z,6.30
2022-09-22T00:11:22.765Z,6.20
2022-09-22T00:14:01.402Z,6.20
2022-09-22T00:16:32.078Z,6.10
2022-09-22T00:18:59.169Z,6.00
2022-09-22T00:21:31.163Z,6.00
2022-09-22T00:23:58.012Z,6.00
2022-09-22T00:26:25.153Z,6.00
2022-09-22T00:28:53.144Z,6.00
2022-09-22T00:31:24.708Z,6.00
2022-09-22T00:33:53.371Z,6.00
2022-09-22T00:36:22.298Z,5.90
2022-09-22T00:38:52.159Z,5.90
2022-09-22T00:41:27.747Z,5.90
2022-09-22T00:44:22.381Z,5.80
2022-09-22T00:47:16.556Z,5.80
2022-09-22T00:49:46.955Z,5.80
2022-09-22T00:52:19.000Z,5.80
2022-09-22T00:54:46.556Z,5.80
2022-09-22T00:57:30.014Z,5.80
2022-09-22T00:59:57.552Z,5.80
2022-09-22T01:02:24.904Z,5.80
2022-09-22T01:04:52.640Z,5.70
2022-09-22T01:07:22.652Z,5.60
2022-09-22T01:09:49.649Z,5.60
2022-09-22T01:12:16.467Z,5.60
2022-09-22T01:15:13.619Z,5.60
2022-09-22T01:18:08.507Z,5.50
2022-09-22T01:20:50.485Z,5.50
2022-09-22T01:23:51.275Z,5.50
2022-09-22T01:26:24.178Z,5.50
2022-09-22T01:29:37.885Z,5.50
2022-09-22T01:32:13.459Z,5.50
2022-09-22T01:34:58.836Z,5.50
2022-09-22T01:37:32.827Z,5.50
2022-09-22T01:40:32.945Z,5.30
2022-09-22T01:43:30.402Z,5.30
2022-09-22T01:45:59.428Z,5.20
2022-09-22T01:48:30.859Z,5.20
2022-09-22T01:51:08.571Z,5.20
2022-09-22T01:53:42.213Z,5.20
2022-09-22T01:56:12.893Z,5.20
2022-09-22T01:58:47.053Z,5.20
2022-09-22T02:01:19.731Z,5.20
2022-09-22T02:03:54.543Z,5.10
2022-09-22T02:06:28.969Z,5.00
2022-09-22T02:09:01.258Z,5.00
2022-09-22T02:11:28.092Z,5.10
2022-09-22T02:13:55.243Z,5.10
2022-09-22T02:16:23.956Z,5.10
2022-09-22T02:19:20.236Z,5.00
2022-09-22T02:21:48.382Z,4.90
2022-09-22T02:24:37.657Z,4.90
2022-09-22T02:27:09.618Z,4.90
2022-09-22T02:29:41.030Z,4.80
2022-09-22T02:32:11.594Z,4.80
2022-09-22T02:34:38.722Z,4.90
2022-09-22T02:37:36.828Z,4.90
2022-09-22T02:40:09.535Z,4.90
2022-09-22T02:42:48.717Z,4.90
2022-09-22T02:45:21.320Z,4.90
2022-09-22T02:47:57.177Z,4.90
2022-09-22T02:50:27.422Z,4.80
2022-09-22T02:53:01.363Z,4.80
2022-09-22T02:55:28.484Z,4.80
2022-09-22T02:57:55.564Z,4.80
2022-09-22T03:00:22.591Z,4.80
2022-09-22T03:02:49.438Z,4.80
2022-09-22T03:05:16.398Z,4.80
2022-09-22T03:07:43.228Z,4.80
2022-09-22T03:10:11.084Z,4.70
2022-09-22T03:13:02.582Z,4.60
2022-09-22T03:15:29.669Z,4.60
2022-09-22T03:17:56.605Z,4.60
2022-09-22T03:20:23.593Z,4.60
2022-09-22T03:22:50.390Z,4.60
2022-09-22T03:25:17.276Z,4.60
2022-09-22T03:27:44.056Z,4.60
2022-09-22T03:30:11.422Z,4.70
2022-09-22T03:32:38.612Z,4.70
2022-09-22T03:35:06.679Z,4.70
2022-09-22T03:37:34.610Z,4.70
2022-09-22T03:40:02.514Z,4.70
2022-09-22T03:42:29.328Z,4.60
2022-09-22T03:44:56.086Z,4.60
2022-09-22T03:47:22.900Z,4.60
2022-09-22T03:49:49.725Z,4.60
2022-09-22T03:52:16.682Z,4.60
2022-09-22T03:54:43.464Z,4.50
2022-09-22T03:57:10.217Z,4.50
2022-09-22T03:59:36.991Z,4.40
2022-09-22T04:02:04.619Z,4.40
2022-09-22T04:04:32.642Z,4.40
2022-09-22T04:07:03.417Z,4.50
2022-09-22T04:09:33.653Z,4.50
2022-09-22T04:12:00.980Z,4.50
2022-09-22T04:14:27.941Z,4.40
2022-09-22T04:16:54.869Z,4.40
2022-09-22T04:19:22.866Z,4.40
2022-09-22T04:21:54.684Z,4.40
2022-09-22T04:24:25.059Z,4.40
2022-09-22T04:27:15.549Z,4.30
2022-09-22T04:29:38.776Z,4.30
2022-09-22T04:32:05.885Z,4.40
2022-09-22T04:34:32.660Z,4.30
2022-09-22T04:36:59.444Z,4.30
2022-09-22T04:39:28.642Z,4.30
2022-09-22T04:41:55.807Z,4.30
2022-09-22T04:44:22.742Z,4.30
2022-09-22T04:46:50.271Z,4.20
2022-09-22T04:49:18.200Z,4.30
2022-09-22T04:51:45.166Z,4.20
2022-09-22T04:54:12.038Z,4.30
2022-09-22T04:56:38.859Z,4.30
2022-09-22T04:59:05.689Z,4.30
2022-09-22T05:01:32.736Z,4.30
2022-09-22T05:03:59.851Z,4.20
2022-09-22T05:06:26.665Z,4.20
2022-09-22T05:08:53.618Z,4.20
2022-09-22T05:11:23.687Z,4.20
2022-09-22T05:13:51.391Z,4.10
2022-09-22T05:16:18.512Z,4.10
2022-09-22T05:18:45.411Z,4.10
2022-09-22T05:21:12.366Z,4.10
2022-09-22T05:23:39.835Z,4.10
2022-09-22T05:26:06.932Z,4.20
2022-09-22T05:28:33.859Z,4.20
2022-09-22T05:31:01.925Z,4.30
2022-09-22T05:33:28.715Z,4.30
2022-09-22T05:35:55.644Z,4.30
2022-09-22T05:38:22.641Z,4.40
2022-09-22T05:40:49.708Z,4.60
2022-09-22T05:43:16.695Z,4.80
2022-09-22T05:45:47.092Z,5.10
2022-09-22T05:48:13.982Z,5.30
2022-09-22T05:50:41.093Z,5.30
2022-09-22T05:53:10.326Z,5.30
2022-09-22T05:55:39.640Z,5.40
2022-09-22T05:58:06.536Z,5.40
2022-09-22T06:00:33.498Z,5.50
2022-09-22T06:03:00.388Z,5.70
2022-09-22T06:05:27.385Z,6.80
2022-09-22T06:08:06.567Z,8.60
2022-09-22T06:21:56.988Z,15.30
2022-09-22T06:24:24.437Z,15.20
2022-09-22T06:27:31.610Z,14.90
2022-09-22T06:31:05.247Z,15.10
2022-09-22T06:33:38.446Z,16.00
2022-09-22T06:36:45.564Z,15.90
2022-09-22T06:39:37.841Z,15.60
2022-09-22T06:42:12.498Z,18.00
2022-09-22T06:45:02.705Z,17.00
2022-09-22T06:47:33.131Z,18.20
2022-09-22T06:50:45.984Z,19.30
2022-09-22T06:53:13.070Z,18.50
2022-09-22T06:56:12.114Z,18.60
2022-09-22T07:02:16.841Z,19.10
2022-09-22T07:04:48.158Z,17.60
2022-09-22T07:07:15.244Z,18.70
2022-09-22T07:09:42.238Z,20.00
2022-09-22T07:12:09.376Z,20.20
2022-09-22T07:15:03.320Z,20.20
2022-09-22T07:17:34.172Z,19.50
2022-09-22T07:20:05.078Z,17.30
2022-09-22T07:22:39.399Z,17.80
2022-09-22T07:25:08.809Z,19.60
2022-09-22T07:27:36.173Z,18.80
2022-09-22T07:30:06.867Z,19.10
2022-09-22T07:32:35.261Z,21.20
2022-09-22T07:35:08.878Z,20.70
2022-09-22T07:37:36.033Z,20.40
2022-09-22T07:40:03.609Z,19.00
2022-09-22T07:42:33.713Z,20.00
2022-09-22T07:45:15.811Z,20.00
2022-09-22T07:48:28.057Z,19.50
2022-09-22T07:54:04.589Z,19.70
2022-09-22T07:56:31.533Z,19.70
2022-09-22T07:59:10.249Z,19.60
2022-09-22T08:01:44.570Z,19.80
2022-09-22T08:04:15.941Z,20.70
2022-09-22T08:06:44.681Z,21.90
2022-09-22T08:09:13.188Z,20.60
2022-09-22T08:11:40.981Z,21.20
2022-09-22T08:14:11.970Z,20.80
2022-09-22T08:16:44.187Z,21.00
2022-09-22T08:22:20.445Z,20.60
2022-09-22T08:24:50.521Z,21.00
2022-09-22T08:27:17.473Z,22.00
2022-09-22T08:29:44.492Z,21.20
2022-09-22T08:32:11.414Z,21.70
2022-09-22T08:34:38.265Z,21.70
2022-09-22T08:37:05.229Z,21.90
2022-09-22T08:39:32.122Z,22.70
2022-09-22T08:42:18.862Z,23.00
2022-09-22T08:45:15.735Z,23.00
2022-09-22T08:48:04.965Z,22.00
2022-09-22T08:50:58.735Z,21.90
2022-09-22T08:53:32.392Z,22.70
2022-09-22T08:56:28.463Z,23.30
2022-09-22T08:59:08.740Z,22.90
2022-09-22T09:01:42.602Z,22.90
2022-09-22T09:04:47.201Z,23.20
2022-09-22T09:07:29.419Z,23.30
2022-09-22T09:09:56.948Z,23.30
2022-09-22T09:12:39.447Z,24.50
2022-09-22T09:15:56.602Z,23.50
2022-09-22T09:18:34.337Z,23.30
2022-09-22T09:21:05.774Z,23.30
2022-09-22T09:26:35.639Z,25.20
2022-09-22T09:29:10.652Z,24.70
2022-09-22T09:31:44.379Z,24.90
2022-09-22T09:34:17.973Z,24.90
2022-09-22T09:37:07.911Z,25.00
2022-09-22T09:39:41.352Z,25.30
2022-09-22T09:42:28.417Z,25.20
2022-09-22T09:44:57.735Z,24.70
2022-09-22T09:47:32.611Z,24.70
2022-09-22T09:49:59.909Z,24.90
2022-09-22T09:52:28.282Z,25.50
2022-09-22T09:54:55.337Z,25.50
2022-09-22T09:57:28.104Z,25.30
2022-09-22T10:00:32.155Z,25.00
2022-09-22T10:03:32.579Z,25.30
2022-09-22T10:06:08.820Z,26.10
2022-09-22T10:08:44.840Z,25.90
2022-09-22T10:11:13.939Z,25.90
2022-09-22T10:13:42.629Z,25.80
2022-09-22T10:16:28.464Z,25.00
2022-09-22T10:19:27.539Z,25.50
2022-09-22T10:22:23.468Z,25.90
2022-09-22T10:25:20.996Z,24.80
2022-09-22T10:28:02.447Z,25.20
2022-09-22T10:30:33.086Z,25.70
2022-09-22T10:33:25.617Z,25.60
2022-09-22T10:36:12.140Z,26.30
2022-09-22T10:38:45.189Z,25.60
2022-09-22T10:41:21.653Z,24.90
2022-09-22T10:44:03.100Z,25.60
2022-09-22T10:47:01.683Z,25.10
2022-09-22T10:49:48.098Z,25.60
2022-09-22T10:52:28.620Z,25.50
2022-09-22T10:55:14.340Z,25.50
2022-09-22T10:58:04.640Z,25.70
2022-09-22T11:00:39.863Z,26.30
2022-09-22T11:03:48.377Z,25.60
2022-09-22T11:07:10.838Z,24.30
2022-09-22T11:10:22.259Z,25.00
2022-09-22T11:13:12.697Z,24.60
2022-09-22T11:15:59.265Z,25.00
2022-09-22T11:18:46.208Z,25.30
2022-09-22T11:21:19.485Z,25.50
2022-09-22T11:24:30.672Z,25.40
2022-09-22T11:27:04.072Z,25.50
2022-09-22T11:29:52.259Z,24.50
2022-09-22T11:32:55.337Z,24.50
2022-09-22T11:36:05.082Z,25.10
2022-09-22T11:38:54.750Z,24.20
2022-09-22T11:41:44.187Z,24.50
2022-09-22T11:44:36.172Z,25.10
2022-09-22T11:47:29.722Z,25.40
2022-09-22T11:50:30.036Z,25.80
2022-09-22T11:53:15.803Z,25.30
2022-09-22T11:56:21.949Z,25.90
2022-09-22T11:58:55.953Z,25.20
2022-09-22T12:01:30.138Z,25.10
2022-09-22T12:04:21.982Z,25.70
2022-09-22T12:06:51.895Z,26.00
2022-09-22T12:09:30.545Z,26.60
2022-09-22T12:12:02.243Z,26.00
2022-09-22T12:14:29.835Z,25.90
2022-09-22T12:17:00.106Z,25.90
2022-09-22T12:19:33.279Z,26.30
2022-09-22T12:22:13.211Z,26.00
2022-09-22T12:24:45.057Z,25.90
2022-09-22T12:27:21.010Z,26.00
2022-09-22T12:30:02.418Z,26.00
2022-09-22T12:32:43.030Z,26.30
2022-09-22T12:35:28.797Z,26.20
2022-09-22T12:38:02.529Z,26.60
2022-09-22T12:40:41.950Z,24.90
2022-09-22T12:43:18.247Z,25.20
2022-09-22T12:45:45.863Z,26.20
2022-09-22T12:48:19.750Z,27.10
2022-09-22T12:50:47.217Z,27.00
2022-09-22T12:53:23.877Z,27.70
2022-09-22T12:56:00.444Z,27.00
2022-09-22T12:58:30.443Z,26.30
2022-09-22T13:01:32.821Z,26.90
2022-09-22T13:04:11.862Z,27.20
2022-09-22T13:06:38.687Z,26.70
2022-09-22T13:09:05.441Z,26.70
2022-09-22T13:12:10.327Z,26.70
2022-09-22T13:14:59.183Z,27.80
2022-09-22T13:17:55.457Z,27.90
2022-09-22T13:20:31.765Z,26.70
2022-09-22T13:23:16.876Z,26.80
2022-09-22T13:25:44.279Z,26.60
2022-09-22T13:28:17.655Z,27.10
2022-09-22T13:30:46.371Z,26.80
2022-09-22T13:33:26.990Z,27.70
2022-09-22T13:36:02.781Z,27.40
2022-09-22T13:38:31.585Z,26.80
2022-09-22T13:40:58.547Z,26.40
2022-09-22T13:43:32.427Z,26.20
2022-09-22T13:46:01.849Z,26.20
2022-09-22T13:48:34.208Z,26.20
2022-09-22T13:51:05.544Z,26.30
2022-09-22T13:53:32.773Z,26.30
2022-09-22T13:56:00.080Z,26.40
2022-09-22T13:58:40.639Z,26.50
2022-09-22T14:01:19.922Z,25.90
2022-09-22T14:03:48.180Z,26.30
2022-09-22T14:06:26.047Z,26.40
2022-09-22T14:08:54.021Z,26.30
2022-09-22T14:11:39.342Z,25.80
2022-09-22T14:14:07.731Z,25.80
2022-09-22T14:16:49.107Z,25.80
2022-09-22T14:19:29.303Z,26.00
2022-09-22T14:22:02.037Z,25.90
2022-09-22T14:24:31.610Z,25.60
2022-09-22T14:27:05.247Z,25.60
2022-09-22T14:29:35.486Z,25.50
2022-09-22T14:32:18.618Z,25.40
2022-09-22T14:34:51.423Z,25.60
2022-09-22T14:37:41.801Z,25.40
2022-09-22T14:40:25.290Z,25.20
2022-09-22T14:43:04.212Z,25.20
2022-09-22T14:45:32.710Z,25.20
2022-09-22T14:48:20.658Z,25.20
2022-09-22T14:50:58.111Z,24.30
2022-09-22T14:53:32.615Z,23.90
2022-09-22T14:56:33.777Z,24.40
2022-09-22T14:59:27.863Z,24.20
2022-09-22T15:02:15.503Z,24.30
2022-09-22T15:04:52.416Z,23.70
2022-09-22T15:07:29.263Z,24.00
2022-09-22T15:10:21.592Z,24.30
2022-09-22T15:12:49.699Z,24.80
2022-09-22T15:15:29.264Z,24.90
2022-09-22T15:18:13.418Z,24.60
2022-09-22T15:20:44.687Z,24.40
2022-09-22T15:23:15.943Z,24.10
2022-09-22T15:25:44.077Z,24.10
2022-09-22T15:32:15.809Z,24.10
2022-09-22T15:35:07.437Z,24.40
2022-09-22T15:37:39.216Z,24.30
2022-09-22T15:40:19.652Z,24.40
2022-09-22T15:43:11.660Z,24.50
2022-09-22T15:45:56.789Z,24.60
2022-09-22T15:49:12.608Z,24.60
2022-09-22T15:51:51.904Z,24.70
2022-09-22T15:57:14.935Z,24.50
2022-09-22T15:59:43.021Z,23.90
2022-09-22T16:02:11.881Z,23.50
2022-09-22T16:04:53.068Z,22.30
2022-09-22T16:10:51.478Z,22.20
2022-09-22T16:14:36.968Z,22.20
2022-09-22T17:03:11.209Z,14.80
2022-09-22T17:25:50.291Z,13.00
2022-09-22T17:28:34.082Z,12.80
2022-09-22T17:31:04.778Z,12.70
2022-09-22T17:33:32.169Z,12.60
2022-09-22T17:36:05.475Z,12.40
2022-09-22T17:38:36.145Z,12.30
2022-09-22T17:41:10.202Z,12.10
2022-09-22T17:43:40.083Z,12.00
2022-09-22T17:46:07.660Z,11.90
2022-09-22T17:48:53.359Z,11.80
2022-09-22T17:51:50.470Z,11.80
2022-09-22T17:54:37.476Z,11.70
2022-09-22T17:57:05.467Z,11.60
2022-09-22T17:59:33.722Z,11.40
2022-09-22T18:02:01.074Z,11.30
2022-09-22T18:04:31.441Z,11.30
2022-09-22T18:06:59.057Z,11.20
2022-09-22T18:09:25.841Z,11.20
2022-09-22T18:11:52.612Z,11.10
2022-09-22T18:14:19.402Z,11.20
2022-09-22T18:16:46.512Z,11.00
2022-09-22T18:19:13.330Z,11.00
2022-09-22T18:21:45.402Z,11.00
2022-09-22T18:24:18.709Z,10.80
2022-09-22T18:26:48.978Z,10.80
2022-09-22T18:29:17.283Z,10.70
2022-09-22T18:31:45.272Z,10.60
2022-09-22T18:34:12.241Z,10.50
2022-09-22T18:36:41.117Z,10.40
2022-09-22T18:39:09.300Z,10.30
2022-09-22T18:41:37.345Z,10.30
2022-09-22T18:44:09.172Z,10.20
2022-09-22T18:46:36.399Z,10.20
2022-09-22T18:49:05.248Z,10.20
2022-09-22T18:51:44.008Z,10.20
2022-09-22T18:54:15.298Z,10.10
2022-09-22T18:56:44.856Z,10.10
2022-09-22T18:59:14.364Z,10.10
2022-09-22T19:01:41.678Z,10.10
2022-09-22T19:04:17.380Z,10.00
2022-09-22T19:07:03.752Z,9.90
2022-09-22T19:09:31.022Z,9.80
2022-09-22T19:11:58.590Z,9.70
2022-09-22T19:14:25.580Z,9.70
2022-09-22T19:16:53.375Z,9.60
2022-09-22T19:19:22.732Z,9.50
2022-09-22T19:21:50.357Z,9.50
2022-09-22T19:24:21.986Z,9.50
2022-09-22T19:26:51.344Z,9.50
2022-09-22T19:29:18.848Z,9.40
2022-09-22T19:31:45.885Z,9.50
2022-09-22T19:34:13.493Z,9.40
2022-09-22T19:36:42.911Z,9.40
2022-09-22T19:39:10.139Z,9.30
2022-09-22T19:41:40.386Z,9.30
2022-09-22T19:44:08.133Z,9.30
2022-09-22T19:46:35.112Z,9.30
2022-09-22T19:49:02.145Z,9.30
2022-09-22T19:51:29.227Z,9.30
2022-09-22T19:53:56.086Z,9.30
2022-09-22T19:56:22.940Z,9.20
2022-09-22T19:58:50.814Z,9.20
2022-09-22T20:01:34.733Z,9.10
2022-09-22T20:04:02.751Z,9.10
2022-09-22T20:06:29.716Z,9.10
2022-09-22T20:09:02.697Z,8.90
2022-09-22T20:11:35.432Z,8.90
2022-09-22T20:14:20.287Z,8.80
2022-09-22T20:17:00.660Z,8.90
2022-09-22T20:19:28.437Z,8.80
2022-09-22T20:22:18.315Z,8.90
2022-09-22T20:24:57.317Z,8.90
2022-09-22T20:27:26.743Z,8.90
2022-09-22T20:29:56.968Z,8.90
2022-09-22T20:32:25.223Z,8.90
2022-09-22T20:34:52.864Z,9.00
2022-09-22T20:37:19.774Z,8.90
2022-09-22T20:39:47.073Z,8.90
2022-09-22T20:42:15.492Z,8.90
2022-09-22T20:44:42.637Z,9.00
2022-09-22T20:47:14.180Z,9.00
2022-09-22T20:49:46.965Z,9.00
2022-09-22T20:52:19.811Z,8.90
2022-09-22T20:54:46.858Z,9.00
2022-09-22T20:57:14.202Z,8.90
2022-09-22T20:59:41.538Z,8.90
2022-09-22T21:02:11.335Z,8.90
2022-09-22T21:04:38.162Z,8.90
2022-09-22T21:07:04.974Z,8.90
2022-09-22T21:09:50.282Z,8.90
2022-09-22T21:12:17.090Z,8.90
2022-09-22T21:14:45.213Z,8.90
2022-09-22T21:17:13.811Z,8.90
2022-09-22T21:19:41.028Z,8.80
2022-09-22T21:22:09.216Z,8.80
2022-09-22T21:24:36.073Z,8.80
2022-09-22T21:27:02.906Z,8.80
2022-09-22T21:29:29.828Z,8.70
2022-09-22T21:31:57.917Z,8.60
2022-09-22T21:34:25.138Z,8.60
2022-09-22T21:36:52.335Z,8.70
2022-09-22T21:39:19.294Z,8.70
2022-09-22T21:41:46.073Z,8.70
2022-09-22T21:44:12.989Z,8.60
2022-09-22T21:46:44.246Z,8.50
2022-09-22T21:49:11.549Z,8.50
2022-09-22T21:51:42.331Z,8.40
2022-09-22T21:54:18.381Z,8.40
2022-09-22T21:56:45.881Z,8.30
2022-09-22T21:59:13.481Z,8.20
2022-09-22T22:01:42.239Z,8.10
2022-09-22T22:04:10.375Z,8.00
2022-09-22T22:06:40.777Z,8.00
2022-09-22T22:09:21.697Z,7.90
2022-09-22T22:11:52.870Z,7.90
2022-09-22T22:14:20.587Z,7.80
2022-09-22T22:16:52.833Z,7.80
2022-09-22T22:19:22.559Z,7.70
2022-09-22T22:21:50.734Z,7.70
2022-09-22T22:24:41.620Z,7.70
2022-09-22T22:27:10.441Z,7.80
2022-09-22T22:29:42.051Z,7.90
2022-09-22T22:32:10.742Z,7.90
2022-09-22T22:34:38.121Z,7.80
2022-09-22T22:37:08.826Z,7.80
2022-09-22T22:39:35.746Z,7.80
2022-09-22T22:42:02.559Z,7.90
2022-09-22T22:44:29.351Z,7.80
2022-09-22T22:46:56.151Z,7.70
2022-09-22T22:49:22.922Z,7.70
2022-09-22T22:51:49.950Z,7.70
2022-09-22T22:54:16.873Z,7.60
2022-09-22T22:56:45.841Z,7.40
2022-09-22T22:59:15.819Z,7.30
2022-09-22T23:01:44.349Z,7.30
2022-09-22T23:04:11.967Z,7.30
2022-09-22T23:06:44.082Z,7.30
2022-09-22T23:09:14.884Z,7.20
2022-09-22T23:11:42.802Z,7.20
2022-09-22T23:14:12.766Z,7.10
2022-09-22T23:16:41.471Z,7.00
2022-09-22T23:19:11.409Z,6.90
2022-09-22T23:21:38.702Z,6.80
2022-09-22T23:24:06.504Z,6.70
2022-09-22T23:26:33.281Z,6.70
2022-09-22T23:29:01.546Z,6.70
2022-09-22T23:31:28.527Z,6.70
2022-09-22T23:33:55.264Z,6.70
2022-09-22T23:36:25.208Z,6.70
2022-09-22T23:38:56.861Z,6.60
2022-09-22T23:41:24.396Z,6.70
2022-09-22T23:43:51.269Z,6.70
2022-09-22T23:46:18.195Z,6.70
2022-09-22T23:48:47.511Z,6.60
2022-09-22T23:51:14.764Z,6.70
2022-09-22T23:53:41.631Z,6.70
2022-09-22T23:56:08.627Z,6.70
2022-09-22T23:58:35.761Z,6.70
